createdAt,value
2017-06-24T00:00:14.077Z,9.73
2017-06-24T00:01:14.072Z,9.63
2017-06-24T00:02:14.056Z,9.65
2017-06-24T00:03:14.048Z,9.77
2017-06-24T00:04:14.032Z,9.68
2017-06-24T00:05:14.026Z,9.78
2017-06-24T00:06:14.015Z,9.73
2017-06-24T00:07:14.008Z,9.7
2017-06-24T00:08:13.997Z,9.67
2017-06-24T00:09:13.991Z,9.73
2017-06-24T00:10:13.981Z,9.75
2017-06-24T00:11:13.968Z,9.74
2017-06-24T00:12:13.957Z,9.65
2017-06-24T00:13:13.949Z,9.75
2017-06-24T00:14:13.939Z,9.74
2017-06-24T00:15:13.629Z,9.77
2017-06-24T00:16:13.924Z,9.75
2017-06-24T00:17:13.913Z,9.7
2017-06-24T00:18:13.598Z,9.75
2017-06-24T00:19:13.889Z,9.63
2017-06-24T00:20:13.879Z,9.52
2017-06-24T00:21:13.868Z,9.59
2017-06-24T00:22:13.863Z,9.68
2017-06-24T00:23:13.853Z,9.59
2017-06-24T00:24:13.845Z,9.68
2017-06-24T00:25:13.830Z,9.62
2017-06-24T00:26:13.823Z,9.65
2017-06-24T00:27:13.814Z,9.68
2017-06-24T00:28:13.804Z,9.63
2017-06-24T00:29:13.792Z,9.71
2017-06-24T00:30:13.779Z,9.77
2017-06-24T00:31:13.773Z,9.63
2017-06-24T00:32:13.462Z,9.65
2017-06-24T00:33:13.450Z,9.68
2017-06-24T00:34:13.738Z,9.75
2017-06-24T00:35:13.733Z,9.74
2017-06-24T00:36:13.420Z,9.75
2017-06-24T00:37:13.719Z,9.63
2017-06-24T00:38:13.702Z,9.65
2017-06-24T00:39:13.696Z,9.65
2017-06-24T00:40:13.681Z,9.65
2017-06-24T00:41:13.670Z,9.68
2017-06-24T00:42:13.660Z,9.58
2017-06-24T00:43:13.354Z,9.56
2017-06-24T00:44:13.674Z,9.55
2017-06-24T00:45:13.637Z,9.63
2017-06-24T00:46:13.625Z,9.63
2017-06-24T00:47:13.614Z,9.65
2017-06-24T00:48:13.604Z,9.67
2017-06-24T00:49:13.597Z,9.62
2017-06-24T00:50:13.585Z,9.6
2017-06-24T00:51:13.576Z,9.52
2017-06-24T00:52:13.565Z,9.58
2017-06-24T00:53:13.255Z,9.48
2017-06-24T00:54:13.544Z,9.65
2017-06-24T00:55:13.236Z,9.6
2017-06-24T00:56:13.532Z,9.58
2017-06-24T00:57:13.519Z,9.63
2017-06-24T00:58:13.505Z,9.68
2017-06-24T00:59:13.496Z,9.65
2017-06-24T01:00:13.487Z,9.75
2017-06-24T01:01:13.480Z,9.73
2017-06-24T01:02:13.465Z,9.6
2017-06-24T01:03:13.456Z,9.55
2017-06-24T01:04:13.148Z,9.48
2017-06-24T01:05:13.436Z,9.52
2017-06-24T01:06:13.429Z,9.62
2017-06-24T01:07:13.416Z,9.49
2017-06-24T01:08:13.411Z,9.5
2017-06-24T01:09:13.401Z,9.53
2017-06-24T01:10:13.388Z,9.45
2017-06-24T01:11:13.379Z,9.49
2017-06-24T01:12:13.374Z,9.44
2017-06-24T01:13:13.358Z,9.5
2017-06-24T01:14:13.350Z,9.53
2017-06-24T01:15:13.338Z,9.53
2017-06-24T01:16:13.335Z,9.48
2017-06-24T01:17:13.323Z,9.53
2017-06-24T01:18:13.315Z,9.62
2017-06-24T01:19:13.304Z,9.62
2017-06-24T01:20:13.291Z,9.58
2017-06-24T01:21:13.281Z,9.67
2017-06-24T01:22:13.269Z,9.62
2017-06-24T01:23:13.260Z,9.62
2017-06-24T01:24:13.250Z,9.65
2017-06-24T01:25:13.242Z,9.62
2017-06-24T01:26:13.227Z,9.59
2017-06-24T01:27:13.221Z,9.58
2017-06-24T01:28:13.212Z,9.67
2017-06-24T01:29:13.201Z,9.63
2017-06-24T01:30:13.191Z,9.65
2017-06-24T01:31:13.181Z,9.68
2017-06-24T01:32:13.174Z,9.63
2017-06-24T01:33:13.159Z,9.59
2017-06-24T01:34:13.152Z,9.75
2017-06-24T01:35:13.146Z,9.75
2017-06-24T01:36:13.135Z,9.67
2017-06-24T01:37:13.124Z,9.68
2017-06-24T01:38:13.117Z,9.75
2017-06-24T01:39:13.108Z,9.67
2017-06-24T01:40:13.094Z,9.65
2017-06-24T01:41:12.788Z,9.71
2017-06-24T01:42:13.077Z,9.65
2017-06-24T01:43:13.069Z,9.74
2017-06-24T01:44:13.061Z,9.75
2017-06-24T01:45:12.745Z,9.68
2017-06-24T01:46:13.043Z,9.77
2017-06-24T01:47:13.027Z,9.74
2017-06-24T01:48:13.022Z,9.73
2017-06-24T01:49:13.012Z,9.73
2017-06-24T01:50:13.004Z,9.65
2017-06-24T01:51:12.999Z,9.62
2017-06-24T01:52:12.988Z,9.74
2017-06-24T01:53:12.973Z,9.68
2017-06-24T01:54:12.663Z,9.71
2017-06-24T01:55:12.955Z,9.7
2017-06-24T01:56:12.646Z,9.7
2017-06-24T01:57:12.634Z,9.71
2017-06-24T01:58:12.927Z,9.68
2017-06-24T01:59:12.920Z,9.74
2017-06-24T02:00:12.909Z,9.71
2017-06-24T02:01:12.895Z,9.73
2017-06-24T02:02:12.888Z,9.73
2017-06-24T02:03:12.577Z,9.59
2017-06-24T02:04:12.872Z,9.63
2017-06-24T02:05:12.855Z,9.67
2017-06-24T02:06:12.851Z,9.65
2017-06-24T02:07:12.536Z,9.6
2017-06-24T02:08:12.825Z,9.63
2017-06-24T02:09:12.821Z,9.67
2017-06-24T02:10:12.807Z,9.67
2017-06-24T02:11:12.799Z,9.68
2017-06-24T02:12:12.790Z,9.71
2017-06-24T02:13:12.775Z,9.62
2017-06-24T02:14:12.765Z,9.73
2017-06-24T02:15:12.756Z,9.74
2017-06-24T02:16:12.747Z,9.63
2017-06-24T02:17:12.737Z,9.73
2017-06-24T02:18:12.732Z,9.7
2017-06-24T02:19:12.720Z,9.65
2017-06-24T02:20:12.710Z,9.63
2017-06-24T02:21:12.699Z,9.68
2017-06-24T02:22:12.691Z,9.63
2017-06-24T02:23:12.680Z,9.68
2017-06-24T02:24:12.669Z,9.62
2017-06-24T02:25:12.665Z,9.67
2017-06-24T02:26:12.652Z,9.68
2017-06-24T02:27:12.640Z,9.65
2017-06-24T02:28:12.632Z,9.7
2017-06-24T02:29:12.622Z,9.63
2017-06-24T02:30:12.611Z,9.67
2017-06-24T02:31:12.602Z,9.65
2017-06-24T02:32:12.591Z,9.62
2017-06-24T02:33:12.276Z,9.67
2017-06-24T02:34:12.571Z,9.63
2017-06-24T02:35:12.563Z,9.63
2017-06-24T02:36:12.552Z,9.67
2017-06-24T02:37:12.541Z,9.58
2017-06-24T02:38:12.527Z,9.6
2017-06-24T02:39:12.517Z,9.71
2017-06-24T02:40:12.514Z,9.65
2017-06-24T02:41:12.501Z,9.65
2017-06-24T02:42:12.491Z,9.67
2017-06-24T02:43:12.177Z,9.63
2017-06-24T02:44:12.471Z,9.65
2017-06-24T02:45:12.461Z,9.6
2017-06-24T02:46:12.456Z,9.63
2017-06-24T02:47:12.442Z,9.67
2017-06-24T02:48:12.433Z,9.65
2017-06-24T02:49:12.421Z,9.63
2017-06-24T02:50:12.412Z,9.65
2017-06-24T02:51:12.399Z,9.71
2017-06-24T02:52:12.392Z,9.74
2017-06-24T02:53:12.379Z,9.71
2017-06-24T02:54:12.374Z,9.78
2017-06-24T02:55:12.062Z,9.7
2017-06-24T02:56:12.352Z,9.62
2017-06-24T02:57:12.345Z,9.68
2017-06-24T02:58:12.335Z,9.68
2017-06-24T02:59:12.322Z,9.71
2017-06-24T03:00:12.313Z,9.7
2017-06-24T03:01:12.305Z,9.63
2017-06-24T03:02:12.291Z,9.73
2017-06-24T03:03:12.288Z,9.73
2017-06-24T03:04:12.276Z,9.88
2017-06-24T03:05:12.263Z,9.83
2017-06-24T03:06:12.257Z,9.77
2017-06-24T03:07:12.242Z,9.74
2017-06-24T03:08:12.238Z,9.75
2017-06-24T03:09:12.225Z,9.78
2017-06-24T03:10:11.911Z,9.73
2017-06-24T03:11:12.203Z,9.74
2017-06-24T03:12:12.193Z,9.81
2017-06-24T03:13:12.185Z,9.74
2017-06-24T03:14:12.173Z,9.77
2017-06-24T03:15:12.166Z,9.75
2017-06-24T03:16:11.855Z,9.77
2017-06-24T03:17:11.846Z,9.73
2017-06-24T03:18:12.135Z,9.81
2017-06-24T03:19:12.126Z,9.77
2017-06-24T03:20:12.122Z,9.78
2017-06-24T03:21:12.113Z,9.83
2017-06-24T03:22:11.801Z,9.78
2017-06-24T03:23:12.087Z,9.71
2017-06-24T03:24:12.084Z,9.73
2017-06-24T03:25:12.071Z,9.73
2017-06-24T03:26:12.057Z,9.77
2017-06-24T03:27:12.053Z,9.75
2017-06-24T03:28:12.039Z,9.77
2017-06-24T03:29:12.030Z,9.68
2017-06-24T03:30:12.022Z,9.71
2017-06-24T03:31:12.017Z,9.7
2017-06-24T03:32:12.001Z,9.75
2017-06-24T03:33:11.993Z,9.6
2017-06-24T03:34:11.978Z,9.71
2017-06-24T03:35:11.967Z,9.73
2017-06-24T03:36:11.957Z,9.67
2017-06-24T03:37:11.952Z,9.65
2017-06-24T03:38:11.939Z,9.71
2017-06-24T03:39:11.931Z,9.75
2017-06-24T03:40:11.922Z,9.77
2017-06-24T03:41:11.910Z,9.77
2017-06-24T03:42:11.900Z,9.83
2017-06-24T03:43:11.890Z,9.74
2017-06-24T03:44:11.880Z,9.74
2017-06-24T03:45:11.877Z,9.86
2017-06-24T03:46:11.861Z,9.78
2017-06-24T03:47:11.849Z,9.85
2017-06-24T03:48:11.841Z,9.86
2017-06-24T03:49:11.835Z,9.75
2017-06-24T03:50:11.825Z,9.8
2017-06-24T03:51:12.015Z,9.88
2017-06-24T03:52:11.805Z,9.74
2017-06-24T03:53:11.794Z,9.86
2017-06-24T03:54:11.780Z,9.91
2017-06-24T03:55:11.777Z,9.85
2017-06-24T03:56:11.672Z,9.92
2017-06-24T03:57:11.757Z,9.86
2017-06-24T03:58:11.746Z,9.91
2017-06-24T03:59:11.739Z,9.78
2017-06-24T04:00:11.724Z,9.85
2017-06-24T04:01:11.614Z,9.81
2017-06-24T04:02:11.908Z,9.86
2017-06-24T04:03:11.698Z,9.89
2017-06-24T04:04:11.684Z,9.89
2017-06-24T04:05:11.675Z,9.99
2017-06-24T04:06:11.667Z,9.99
2017-06-24T04:07:11.689Z,9.88
2017-06-24T04:08:11.648Z,9.92
2017-06-24T04:09:11.336Z,9.99
2017-06-24T04:10:11.334Z,9.99
2017-06-24T04:11:11.615Z,9.98
2017-06-24T04:12:11.614Z,10.06
2017-06-24T04:13:11.600Z,10.06
2017-06-24T04:14:11.589Z,10.13
2017-06-24T04:15:11.583Z,10.06
2017-06-24T04:16:11.569Z,10.02
2017-06-24T04:17:11.561Z,10.17
2017-06-24T04:18:11.551Z,10.02
2017-06-24T04:19:11.542Z,10.01
2017-06-24T04:20:11.529Z,10.01
2017-06-24T04:21:11.524Z,10.02
2017-06-24T04:22:11.511Z,9.98
2017-06-24T04:23:11.506Z,10.02
2017-06-24T04:24:11.186Z,10.06
2017-06-24T04:25:11.182Z,10.06
2017-06-24T04:26:11.470Z,9.99
2017-06-24T04:27:11.463Z,10.02
2017-06-24T04:28:11.654Z,10.09
2017-06-24T04:29:11.447Z,10.07
2017-06-24T04:30:11.433Z,9.99
2017-06-24T04:31:11.424Z,10.01
2017-06-24T04:32:11.417Z,10.13
2017-06-24T04:33:11.606Z,10.1
2017-06-24T04:34:11.399Z,10.11
2017-06-24T04:35:11.387Z,10.14
2017-06-24T04:36:11.376Z,10.22
2017-06-24T04:37:11.370Z,10.2
2017-06-24T04:38:11.562Z,10.22
2017-06-24T04:39:11.552Z,10.18
2017-06-24T04:40:11.343Z,10.24
2017-06-24T04:41:11.030Z,10.43
2017-06-24T04:42:11.321Z,10.66
2017-06-24T04:43:11.309Z,10.81
2017-06-24T04:44:11.304Z,10.66
2017-06-24T04:45:11.295Z,10.63
2017-06-24T04:46:11.285Z,10.57
2017-06-24T04:47:11.280Z,10.52
2017-06-24T04:48:11.265Z,10.62
2017-06-24T04:49:11.258Z,10.69
2017-06-24T04:50:11.246Z,10.57
2017-06-24T04:51:11.237Z,10.43
2017-06-24T04:52:11.230Z,10.46
2017-06-24T04:53:11.223Z,10.44
2017-06-24T04:54:11.221Z,10.31
2017-06-24T04:55:11.207Z,10.51
2017-06-24T04:56:11.194Z,10.25
2017-06-24T04:57:11.185Z,10.43
2017-06-24T04:58:11.176Z,10.38
2017-06-24T04:59:11.166Z,10.31
2017-06-24T05:00:11.162Z,10.42
2017-06-24T05:01:11.151Z,10.39
2017-06-24T05:02:11.140Z,10.43
2017-06-24T05:03:11.131Z,10.32
2017-06-24T05:04:11.143Z,10.24
2017-06-24T05:05:11.112Z,10.32
2017-06-24T05:06:24.737Z,10.28
2017-06-24T05:07:11.094Z,10.28
2017-06-24T05:08:11.091Z,10.28
2017-06-24T05:09:11.077Z,10.39
2017-06-24T05:10:11.070Z,10.51
2017-06-24T05:11:24.446Z,10.58
2017-06-24T05:12:24.686Z,10.46
2017-06-24T05:13:11.043Z,10.47
2017-06-24T05:14:11.031Z,10.58
2017-06-24T05:15:11.022Z,10.49
2017-06-24T05:16:11.015Z,10.63
2017-06-24T05:17:11.006Z,10.69
2017-06-24T05:18:10.993Z,10.69
2017-06-24T05:19:10.690Z,10.7
2017-06-24T05:20:10.979Z,10.69
2017-06-24T05:21:10.968Z,10.51
2017-06-24T05:22:10.960Z,10.62
2017-06-24T05:23:10.954Z,10.65
2017-06-24T05:24:10.939Z,10.73
2017-06-24T05:25:10.934Z,10.78
2017-06-24T05:26:10.624Z,10.8
2017-06-24T05:27:10.922Z,10.73
2017-06-24T05:28:10.905Z,10.54
2017-06-24T05:29:10.898Z,10.66
2017-06-24T05:30:10.888Z,10.69
2017-06-24T05:31:10.883Z,10.47
2017-06-24T05:32:10.870Z,10.54
2017-06-24T05:33:10.861Z,10.68
2017-06-24T05:34:10.857Z,10.58
2017-06-24T05:35:10.849Z,10.68
2017-06-24T05:36:10.835Z,10.68
2017-06-24T05:37:10.852Z,10.75
2017-06-24T05:38:10.821Z,10.98
2017-06-24T05:39:10.808Z,11.42
2017-06-24T05:40:10.801Z,11.24
2017-06-24T05:41:10.790Z,11.03
2017-06-24T05:42:10.781Z,11.06
2017-06-24T05:43:10.674Z,11.36
2017-06-24T05:44:10.758Z,11.36
2017-06-24T05:45:10.753Z,11.38
2017-06-24T05:46:10.753Z,11.62
2017-06-24T05:47:10.739Z,11.56
2017-06-24T05:48:10.929Z,12
2017-06-24T05:49:10.923Z,12.41
2017-06-24T05:50:10.413Z,12.33
2017-06-24T05:51:10.699Z,12.54
2017-06-24T05:52:10.697Z,12.16
2017-06-24T05:53:10.684Z,12.12
2017-06-24T05:54:10.577Z,12.3
2017-06-24T05:55:10.689Z,12.66
2017-06-24T05:56:10.661Z,12.71
2017-06-24T05:57:10.651Z,11.96
2017-06-24T05:58:10.646Z,12.03
2017-06-24T05:59:10.636Z,11.54
2017-06-24T06:00:10.632Z,11.6
2017-06-24T06:01:10.627Z,12.05
2017-06-24T06:02:10.310Z,12.07
2017-06-24T06:03:10.602Z,11.64
2017-06-24T06:04:10.594Z,11.67
2017-06-24T06:05:10.284Z,11.81
2017-06-24T06:06:10.580Z,11.82
2017-06-24T06:07:10.575Z,11.38
2017-06-24T06:08:10.569Z,11.09
2017-06-24T06:09:10.252Z,10.94
2017-06-24T06:10:10.546Z,11.12
2017-06-24T06:11:10.534Z,11.13
2017-06-24T06:12:10.526Z,11.53
2017-06-24T06:13:10.517Z,11.66
2017-06-24T06:14:10.511Z,12.04
2017-06-24T06:15:10.505Z,11.72
2017-06-24T06:16:10.498Z,11.35
2017-06-24T06:17:10.482Z,11.26
2017-06-24T06:18:10.479Z,11.39
2017-06-24T06:19:10.473Z,11.51
2017-06-24T06:20:10.466Z,11.63
2017-06-24T06:21:10.658Z,11.81
2017-06-24T06:22:10.143Z,12.05
2017-06-24T06:23:10.440Z,11.9
2017-06-24T06:24:10.431Z,11.98
2017-06-24T06:25:10.420Z,12.07
2017-06-24T06:26:10.611Z,11.66
2017-06-24T06:27:10.610Z,12.13
2017-06-24T06:28:10.395Z,12.92
2017-06-24T06:29:10.388Z,12.87
2017-06-24T06:30:10.384Z,12.73
2017-06-24T06:31:10.375Z,12.23
2017-06-24T06:32:10.361Z,11.85
2017-06-24T06:33:10.362Z,11.78
2017-06-24T06:34:10.345Z,11.64
2017-06-24T06:35:10.338Z,11.64
2017-06-24T06:36:10.335Z,11.93
2017-06-24T06:37:10.330Z,12.33
2017-06-24T06:38:10.322Z,12.19
2017-06-24T06:39:10.310Z,12.56
2017-06-24T06:40:10.311Z,12.56
2017-06-24T06:41:10.300Z,12.71
2017-06-24T06:42:10.289Z,12.77
2017-06-24T06:43:10.279Z,12.7
2017-06-24T06:44:09.973Z,12.4
2017-06-24T06:45:09.965Z,12.38
2017-06-24T06:46:10.260Z,12.52
2017-06-24T06:47:09.988Z,12.63
2017-06-24T06:48:10.249Z,12.71
2017-06-24T06:49:10.236Z,12.54
2017-06-24T06:50:10.228Z,12.38
2017-06-24T06:51:10.221Z,12.7
2017-06-24T06:52:10.218Z,12.25
2017-06-24T06:53:10.205Z,12.33
2017-06-24T06:54:10.196Z,12.52
2017-06-24T06:55:10.194Z,12.3
2017-06-24T06:56:10.182Z,12.18
2017-06-24T06:57:09.873Z,12.62
2017-06-24T06:58:10.172Z,12.95
2017-06-24T06:59:09.861Z,13.31
2017-06-24T07:00:09.852Z,13.24
2017-06-24T07:01:10.157Z,13.9
2017-06-24T07:02:10.143Z,13.98
2017-06-24T07:03:10.133Z,14.38
2017-06-24T07:04:10.131Z,14.42
2017-06-24T07:05:10.147Z,14.56
2017-06-24T07:06:10.114Z,13.94
2017-06-24T07:07:09.805Z,13.35
2017-06-24T07:08:09.798Z,13.75
2017-06-24T07:09:10.088Z,14.12
2017-06-24T07:10:10.088Z,14.02
2017-06-24T07:11:10.080Z,13.06
2017-06-24T07:12:10.075Z,13.32
2017-06-24T07:13:10.065Z,13.22
2017-06-24T07:14:09.761Z,13.36
2017-06-24T07:15:10.053Z,13.72
2017-06-24T07:16:09.747Z,13.81
2017-06-24T07:17:10.040Z,13.66
2017-06-24T07:18:10.033Z,13.54
2017-06-24T07:19:10.029Z,13.51
2017-06-24T07:20:10.022Z,14.36
2017-06-24T07:21:10.015Z,14.61
2017-06-24T07:22:10.013Z,15.18
2017-06-24T07:23:10.004Z,15.43
2017-06-24T07:24:09.997Z,15.52
2017-06-24T07:25:09.993Z,15.25
2017-06-24T07:26:09.987Z,15.88
2017-06-24T07:27:09.980Z,15.11
2017-06-24T07:28:09.975Z,14.39
2017-06-24T07:29:09.971Z,13.99
2017-06-24T07:30:09.963Z,13.63
2017-06-24T07:31:09.957Z,13.1
2017-06-24T07:32:09.946Z,13.27
2017-06-24T07:33:09.947Z,13.25
2017-06-24T07:34:09.636Z,13.44
2017-06-24T07:35:09.629Z,13.36
2017-06-24T07:36:09.621Z,13.44
2017-06-24T07:37:09.617Z,14.08
2017-06-24T07:38:09.608Z,13.91
2017-06-24T07:39:09.606Z,13.99
2017-06-24T07:40:09.598Z,13.88
2017-06-24T07:41:09.586Z,14.16
2017-06-24T07:42:09.884Z,14.29
2017-06-24T07:43:09.877Z,14.34
2017-06-24T07:44:09.871Z,14.66
2017-06-24T07:45:09.861Z,14.54
2017-06-24T07:46:09.862Z,14.11
2017-06-24T07:47:09.550Z,13.8
2017-06-24T07:48:09.845Z,13.55
2017-06-24T07:49:09.844Z,13.36
2017-06-24T07:50:09.832Z,13.54
2017-06-24T07:51:09.828Z,13.84
2017-06-24T07:52:09.814Z,14.16
2017-06-24T07:53:09.817Z,14.48
2017-06-24T07:54:09.507Z,14.3
2017-06-24T07:55:09.805Z,14.49
2017-06-24T07:56:09.795Z,14.52
2017-06-24T07:57:09.787Z,14.34
2017-06-24T07:58:09.779Z,14.13
2017-06-24T07:59:09.775Z,13.75
2017-06-24T08:00:09.767Z,13.81
2017-06-24T08:01:09.762Z,13.59
2017-06-24T08:02:09.756Z,14.17
2017-06-24T08:03:09.749Z,14.35
2017-06-24T08:04:09.741Z,14.42
2017-06-24T08:05:09.738Z,15.15
2017-06-24T08:06:09.732Z,15.49
2017-06-24T08:07:09.724Z,15.53
2017-06-24T08:08:09.717Z,15.58
2017-06-24T08:09:09.712Z,15.4
2017-06-24T08:10:09.705Z,15.04
2017-06-24T08:11:09.700Z,14.01
2017-06-24T08:12:09.696Z,13.76
2017-06-24T08:13:09.693Z,13.71
2017-06-24T08:14:09.687Z,13.99
2017-06-24T08:15:09.674Z,13.68
2017-06-24T08:16:09.674Z,13.39
2017-06-24T08:17:09.669Z,13.1
2017-06-24T08:18:09.662Z,12.99
2017-06-24T08:19:09.358Z,13.38
2017-06-24T08:20:09.651Z,14.05
2017-06-24T08:21:09.640Z,13.41
2017-06-24T08:22:09.635Z,13.51
2017-06-24T08:23:09.630Z,13.87
2017-06-24T08:24:09.626Z,14.02
2017-06-24T08:25:09.619Z,14.05
2017-06-24T08:26:09.609Z,13.98
2017-06-24T08:27:09.606Z,13.68
2017-06-24T08:28:09.602Z,13.9
2017-06-24T08:29:09.594Z,14.41
2017-06-24T08:30:09.588Z,14.93
2017-06-24T08:31:09.579Z,14.9
2017-06-24T08:32:09.582Z,14.93
2017-06-24T08:33:09.569Z,15.62
2017-06-24T08:34:09.570Z,15.55
2017-06-24T08:35:09.557Z,15.53
2017-06-24T08:36:09.249Z,15.92
2017-06-24T08:37:09.545Z,15.88
2017-06-24T08:38:09.544Z,15.2
2017-06-24T08:39:09.538Z,14.82
2017-06-24T08:40:09.534Z,15.04
2017-06-24T08:41:09.525Z,14.85
2017-06-24T08:42:09.551Z,14.9
2017-06-24T08:43:09.513Z,15.04
2017-06-24T08:44:09.511Z,14.57
2017-06-24T08:45:09.503Z,14.56
2017-06-24T08:46:09.501Z,14.29
2017-06-24T08:47:09.489Z,13.29
2017-06-24T08:48:09.487Z,12.88
2017-06-24T08:49:09.481Z,12.99
2017-06-24T08:50:09.476Z,13.41
2017-06-24T08:51:09.469Z,13.44
2017-06-24T08:52:09.459Z,13.73
2017-06-24T08:53:09.455Z,13.75
2017-06-24T08:54:09.452Z,13.71
2017-06-24T08:55:09.443Z,13.75
2017-06-24T08:56:09.436Z,14.19
2017-06-24T08:57:09.427Z,14.45
2017-06-24T08:58:09.419Z,14.59
2017-06-24T08:59:09.420Z,14.67
2017-06-24T09:00:09.415Z,14.41
2017-06-24T09:01:09.404Z,14.23
2017-06-24T09:02:09.396Z,13.99
2017-06-24T09:03:09.395Z,14.2
2017-06-24T09:04:09.386Z,13.63
2017-06-24T09:05:09.383Z,14.06
2017-06-24T09:06:09.375Z,14.74
2017-06-24T09:07:09.367Z,14.97
2017-06-24T09:08:09.364Z,15.13
2017-06-24T09:09:09.357Z,15.62
2017-06-24T09:10:09.354Z,16.04
2017-06-24T09:11:09.048Z,16.42
2017-06-24T09:12:09.339Z,16.81
2017-06-24T09:13:09.032Z,16.04
2017-06-24T09:14:09.030Z,15.49
2017-06-24T09:15:09.325Z,15.99
2017-06-24T09:16:09.318Z,15.74
2017-06-24T09:17:09.010Z,15.3
2017-06-24T09:18:09.003Z,15.15
2017-06-24T09:19:09.303Z,15.31
2017-06-24T09:20:09.310Z,15.15
2017-06-24T09:21:09.295Z,15.09
2017-06-24T09:22:08.990Z,14.83
2017-06-24T09:23:09.280Z,14.94
2017-06-24T09:24:09.278Z,14.64
2017-06-24T09:25:09.271Z,15.01
2017-06-24T09:26:09.268Z,15.13
2017-06-24T09:27:09.260Z,15.18
2017-06-24T09:28:09.250Z,14.97
2017-06-24T09:29:08.950Z,15.09
2017-06-24T09:30:08.944Z,15.31
2017-06-24T09:31:09.239Z,15.25
2017-06-24T09:32:09.229Z,14.39
2017-06-24T09:33:09.227Z,14.52
2017-06-24T09:34:09.225Z,14.78
2017-06-24T09:35:09.214Z,15.15
2017-06-24T09:36:09.217Z,15.12
2017-06-24T09:37:09.211Z,14.54
2017-06-24T09:38:09.200Z,14.8
2017-06-24T09:39:09.192Z,14.31
2017-06-24T09:40:09.212Z,14.2
2017-06-24T09:41:09.187Z,14.48
2017-06-24T09:42:08.877Z,14.59
2017-06-24T09:43:09.176Z,14.71
2017-06-24T09:44:09.167Z,14.74
2017-06-24T09:45:09.167Z,14.61
2017-06-24T09:46:09.173Z,13.99
2017-06-24T09:47:09.160Z,14.2
2017-06-24T09:48:09.148Z,13.96
2017-06-24T09:49:09.143Z,13.91
2017-06-24T09:50:08.839Z,13.71
2017-06-24T09:51:09.157Z,13.54
2017-06-24T09:52:09.131Z,13.17
2017-06-24T09:53:08.821Z,13.28
2017-06-24T09:54:09.121Z,12.95
2017-06-24T09:55:09.132Z,12.98
2017-06-24T09:56:09.101Z,12.67
2017-06-24T09:57:09.099Z,12.81
2017-06-24T09:58:09.113Z,12.59
2017-06-24T09:59:08.783Z,12.77
2017-06-24T10:00:09.080Z,13.04
2017-06-24T10:01:09.075Z,13.01
2017-06-24T10:02:08.762Z,13.17
2017-06-24T10:03:08.758Z,13.25
2017-06-24T10:04:09.071Z,12.94
2017-06-24T10:05:08.742Z,13.06
2017-06-24T10:06:09.057Z,13.12
2017-06-24T10:07:08.729Z,13.51
2017-06-24T10:08:08.726Z,13.55
2017-06-24T10:09:08.719Z,13.54
2017-06-24T10:10:08.714Z,13.44
2017-06-24T10:11:09.009Z,13.13
2017-06-24T10:12:09.020Z,13.28
2017-06-24T10:13:09.011Z,13.41
2017-06-24T10:14:09.000Z,13.46
2017-06-24T10:15:08.681Z,13.24
2017-06-24T10:16:08.979Z,13.06
2017-06-24T10:17:08.965Z,13.12
2017-06-24T10:18:08.983Z,13.22
2017-06-24T10:19:08.973Z,13.19
2017-06-24T10:20:08.948Z,13.12
2017-06-24T10:21:08.944Z,13.21
2017-06-24T10:22:08.941Z,13.38
2017-06-24T10:23:08.939Z,13.28
2017-06-24T10:24:08.636Z,13.24
2017-06-24T10:25:08.950Z,13.61
2017-06-24T10:26:08.916Z,14.02
2017-06-24T10:27:08.598Z,14.16
2017-06-24T10:28:08.916Z,14.52
2017-06-24T10:29:08.910Z,14.78
2017-06-24T10:30:08.903Z,14.95
2017-06-24T10:31:08.892Z,15.01
2017-06-24T10:32:08.887Z,14.82
2017-06-24T10:33:08.859Z,14.91
2017-06-24T10:34:08.890Z,14.74
2017-06-24T10:35:08.849Z,14.38
2017-06-24T10:36:08.845Z,14.44
2017-06-24T10:37:08.838Z,14.61
2017-06-24T10:38:08.832Z,14.82
2017-06-24T10:39:08.820Z,14.69
2017-06-24T10:40:08.819Z,14.83
2017-06-24T10:41:08.814Z,14.64
2017-06-24T10:42:08.806Z,14.75
2017-06-24T10:43:08.798Z,15.13
2017-06-24T10:44:08.799Z,15.37
2017-06-24T10:45:08.792Z,15.41
2017-06-24T10:46:08.785Z,15.19
2017-06-24T10:47:08.778Z,15.38
2017-06-24T10:48:08.776Z,15.22
2017-06-24T10:49:08.771Z,15.07
2017-06-24T10:50:08.758Z,15.22
2017-06-24T10:51:08.758Z,15.07
2017-06-24T10:52:08.754Z,14.94
2017-06-24T10:53:08.746Z,15.03
2017-06-24T10:54:08.743Z,14.97
2017-06-24T10:55:08.730Z,15.11
2017-06-24T10:56:08.726Z,14.75
2017-06-24T10:57:08.720Z,14.93
2017-06-24T10:58:08.720Z,15.15
2017-06-24T10:59:08.710Z,15.33
2017-06-24T11:00:08.708Z,15.31
2017-06-24T11:01:08.708Z,15.43
2017-06-24T11:02:08.694Z,15.3
2017-06-24T11:03:08.386Z,15.04
2017-06-24T11:04:08.716Z,14.8
2017-06-24T11:05:08.681Z,14.72
2017-06-24T11:06:08.675Z,14.64
2017-06-24T11:07:08.667Z,14.61
2017-06-24T11:08:08.663Z,14.94
2017-06-24T11:09:08.658Z,15.3
2017-06-24T11:10:08.651Z,15.66
2017-06-24T11:11:08.643Z,15.59
2017-06-24T11:12:08.637Z,15.64
2017-06-24T11:13:08.332Z,15.91
2017-06-24T11:14:08.633Z,16.04
2017-06-24T11:15:08.619Z,16.03
2017-06-24T11:16:08.617Z,16.1
2017-06-24T11:17:08.615Z,16.52
2017-06-24T11:18:08.309Z,16.9
2017-06-24T11:19:08.600Z,17.35
2017-06-24T11:20:08.599Z,17.58
2017-06-24T11:21:08.596Z,17.28
2017-06-24T11:22:08.289Z,16.5
2017-06-24T11:23:08.589Z,16.6
2017-06-24T11:24:08.582Z,16.52
2017-06-24T11:25:08.579Z,16.8
2017-06-24T11:26:08.574Z,16.69
2017-06-24T11:27:08.572Z,16.8
2017-06-24T11:28:08.562Z,17.15
2017-06-24T11:29:08.556Z,17.65
2017-06-24T11:30:08.558Z,18.04
2017-06-24T11:31:08.553Z,18.28
2017-06-24T11:32:08.544Z,18.65
2017-06-24T11:33:08.543Z,18.38
2017-06-24T11:34:08.543Z,17.86
2017-06-24T11:35:08.532Z,17.77
2017-06-24T11:36:08.537Z,17.65
2017-06-24T11:37:08.230Z,17.53
2017-06-24T11:38:08.527Z,17.35
2017-06-24T11:39:08.524Z,17.42
2017-06-24T11:40:08.521Z,17.3
2017-06-24T11:41:08.517Z,16.98
2017-06-24T11:42:08.513Z,17.25
2017-06-24T11:43:08.508Z,17.53
2017-06-24T11:44:08.508Z,17.94
2017-06-24T11:45:08.505Z,18.69
2017-06-24T11:46:08.501Z,19.16
2017-06-24T11:47:08.499Z,19.43
2017-06-24T11:48:08.188Z,19.53
2017-06-24T11:49:08.492Z,19.92
2017-06-24T11:50:08.485Z,19.83
2017-06-24T11:51:08.486Z,19.49
2017-06-24T11:52:08.485Z,19.5
2017-06-24T11:53:08.478Z,20.02
2017-06-24T11:54:08.476Z,20.12
2017-06-24T11:55:08.475Z,19.75
2017-06-24T11:56:08.469Z,19.38
2017-06-24T11:57:08.473Z,19.05
2017-06-24T11:58:08.468Z,18.21
2017-06-24T11:59:08.463Z,17.98
2017-06-24T12:00:08.465Z,18.29
2017-06-24T12:01:08.459Z,18.66
2017-06-24T12:02:08.465Z,19.21
2017-06-24T12:03:08.456Z,19.5
2017-06-24T12:04:08.452Z,19.8
2017-06-24T12:05:08.449Z,19.71
2017-06-24T12:06:08.447Z,19.2
2017-06-24T12:07:08.444Z,19.61
2017-06-24T12:08:08.445Z,20.15
2017-06-24T12:09:08.137Z,20.53
2017-06-24T12:10:08.439Z,21
2017-06-24T12:11:08.434Z,21.01
2017-06-24T12:12:08.431Z,20.83
2017-06-24T12:13:08.432Z,21
2017-06-24T12:14:08.428Z,21.33
2017-06-24T12:15:08.426Z,21.31
2017-06-24T12:16:08.424Z,21.48
2017-06-24T12:17:08.422Z,21.26
2017-06-24T12:18:08.421Z,20.97
2017-06-24T12:19:08.421Z,20.48
2017-06-24T12:20:08.420Z,21.11
2017-06-24T12:21:08.421Z,21.63
2017-06-24T12:22:08.416Z,21.64
2017-06-24T12:23:08.412Z,21.59
2017-06-24T12:24:08.412Z,21.64
2017-06-24T12:25:08.409Z,21.58
2017-06-24T12:26:08.406Z,20.78
2017-06-24T12:27:08.406Z,19.89
2017-06-24T12:28:08.406Z,20.02
2017-06-24T12:29:08.408Z,20.75
2017-06-24T12:30:08.100Z,20.3
2017-06-24T12:31:08.398Z,20.26
2017-06-24T12:32:08.398Z,19.62
2017-06-24T12:33:08.399Z,20.08
2017-06-24T12:34:08.096Z,19.87
2017-06-24T12:35:08.396Z,19.34
2017-06-24T12:36:08.390Z,19.23
2017-06-24T12:37:08.389Z,19.16
2017-06-24T12:38:08.389Z,19.76
2017-06-24T12:39:08.387Z,20
2017-06-24T12:40:08.395Z,20.3
2017-06-24T12:41:08.379Z,20.66
2017-06-24T12:42:08.075Z,21.03
2017-06-24T12:43:08.377Z,21.09
2017-06-24T12:44:08.069Z,21.51
2017-06-24T12:45:08.372Z,21.56
2017-06-24T12:46:08.369Z,21.34
2017-06-24T12:47:08.371Z,21.36
2017-06-24T12:48:08.365Z,21.08
2017-06-24T12:49:08.367Z,21.36
2017-06-24T12:50:08.367Z,21.86
2017-06-24T12:51:08.363Z,21.82
2017-06-24T12:52:08.057Z,21.26
2017-06-24T12:53:08.352Z,21.08
2017-06-24T12:54:08.356Z,20.96
2017-06-24T12:55:08.047Z,21.15
2017-06-24T12:56:08.350Z,20.94
2017-06-24T12:57:08.047Z,20.53
2017-06-24T12:58:08.343Z,20.25
2017-06-24T12:59:08.344Z,19.46
2017-06-24T13:00:08.350Z,18.6
2017-06-24T13:01:08.040Z,18.14
2017-06-24T13:02:08.339Z,17.94
2017-06-24T13:03:08.338Z,17.28